createdAt,value
2023-02-08T00:00:35.769Z,-8.88
2023-02-08T00:01:39.804Z,-8.91
2023-02-08T00:02:43.790Z,-8.91
2023-02-08T00:03:48.575Z,-8.91
2023-02-08T00:04:52.591Z,-8.95
2023-02-08T00:05:56.500Z,-8.93
2023-02-08T00:07:00.474Z,-8.91
2023-02-08T00:08:04.558Z,-8.96
2023-02-08T00:09:08.545Z,-8.94
2023-02-08T00:10:12.938Z,-8.94
2023-02-08T00:11:16.899Z,-8.94
2023-02-08T00:12:20.820Z,-8.94
2023-02-08T00:13:25.194Z,-8.95
2023-02-08T00:14:29.227Z,-8.99
2023-02-08T00:15:33.078Z,-8.99
2023-02-08T00:16:36.995Z,-8.99
2023-02-08T00:17:40.849Z,-9.00
2023-02-08T00:18:44.709Z,-9.01
2023-02-08T00:19:48.689Z,-8.98
2023-02-08T00:20:52.758Z,-8.98
2023-02-08T00:21:56.605Z,-8.96
2023-02-08T00:23:00.457Z,-9.00
2023-02-08T00:24:04.520Z,-8.98
2023-02-08T00:25:09.023Z,-9.00
2023-02-08T00:26:13.819Z,-9.01
2023-02-08T00:27:18.274Z,-9.03
2023-02-08T00:28:22.395Z,-9.05
2023-02-08T00:29:26.521Z,-9.09
2023-02-08T00:30:30.629Z,-9.08
2023-02-08T00:31:34.669Z,-9.09
2023-02-08T00:32:38.738Z,-9.14
2023-02-08T00:33:42.750Z,-9.14
2023-02-08T00:34:46.719Z,-9.24
2023-02-08T00:35:50.837Z,-9.23
2023-02-08T00:36:54.873Z,-9.23
2023-02-08T00:37:58.902Z,-9.29
2023-02-08T00:39:03.260Z,-9.30
2023-02-08T00:40:07.960Z,-9.30
2023-02-08T00:41:12.064Z,-9.35
2023-02-08T00:42:16.091Z,-9.32
2023-02-08T00:43:20.091Z,-9.33
2023-02-08T00:44:24.123Z,-9.40
2023-02-08T00:45:28.085Z,-9.45
2023-02-08T00:46:32.097Z,-9.43
2023-02-08T00:47:35.995Z,-9.43
2023-02-08T00:48:39.946Z,-9.44
2023-02-08T00:49:43.924Z,-9.42
2023-02-08T00:51:01.960Z,-9.46
2023-02-08T00:52:05.985Z,-9.41
2023-02-08T00:53:09.928Z,-9.46
2023-02-08T00:54:16.260Z,-9.45
2023-02-08T00:55:20.366Z,-9.45
2023-02-08T00:56:24.405Z,-9.44
2023-02-08T00:57:28.446Z,-9.44
2023-02-08T00:58:32.470Z,-9.44
2023-02-08T00:59:36.414Z,-9.43
2023-02-08T01:00:40.710Z,-9.43
2023-02-08T01:01:44.943Z,-9.45
2023-02-08T01:02:48.871Z,-9.48
2023-02-08T01:03:52.898Z,-9.46
2023-02-08T01:04:56.871Z,-9.46
2023-02-08T01:06:07.081Z,-9.49
2023-02-08T01:07:11.173Z,-9.46
2023-02-08T01:08:15.662Z,-9.48
2023-02-08T01:09:19.714Z,-9.48
2023-02-08T01:10:23.761Z,-9.48
2023-02-08T01:11:27.777Z,-9.47
2023-02-08T01:12:31.797Z,-9.49
2023-02-08T01:13:36.736Z,-9.48
2023-02-08T01:14:41.320Z,-9.50
2023-02-08T01:15:45.261Z,-9.51
2023-02-08T01:16:49.651Z,-9.51
2023-02-08T01:17:58.122Z,-9.52
2023-02-08T01:19:03.957Z,-9.53
2023-02-08T01:20:08.859Z,-9.53
2023-02-08T01:21:15.647Z,-9.53
2023-02-08T01:22:19.515Z,-9.53
2023-02-08T01:23:23.434Z,-9.53
2023-02-08T01:24:27.631Z,-9.50
2023-02-08T01:25:31.742Z,-9.51
2023-02-08T01:26:37.640Z,-9.51
2023-02-08T01:27:41.733Z,-9.48
2023-02-08T01:28:46.297Z,-9.54
2023-02-08T01:29:50.258Z,-9.54
2023-02-08T01:30:54.323Z,-9.60
2023-02-08T01:31:58.337Z,-9.56
2023-02-08T01:33:02.231Z,-9.57
2023-02-08T01:34:07.656Z,-9.58
2023-02-08T01:35:11.650Z,-9.57
2023-02-08T01:36:16.284Z,-9.62
2023-02-08T01:37:20.162Z,-9.61
2023-02-08T01:38:24.013Z,-9.58
2023-02-08T01:39:27.933Z,-9.63
2023-02-08T01:40:31.968Z,-9.60
2023-02-08T01:41:39.663Z,-9.63
2023-02-08T01:42:43.636Z,-9.64
2023-02-08T01:44:08.331Z,-9.65
2023-02-08T01:45:18.045Z,-9.70
2023-02-08T01:46:22.117Z,-9.70
2023-02-08T01:47:26.754Z,-9.67
2023-02-08T01:48:33.610Z,-9.68
2023-02-08T01:49:38.312Z,-9.72
2023-02-08T01:50:57.449Z,-9.72
2023-02-08T01:52:04.341Z,-9.72
2023-02-08T01:53:08.702Z,-9.73
2023-02-08T01:54:14.967Z,-9.73
2023-02-08T01:55:24.462Z,-9.74
2023-02-08T01:56:31.403Z,-9.75
2023-02-08T01:57:35.570Z,-9.76
2023-02-08T01:58:42.506Z,-9.78
2023-02-08T01:59:49.434Z,-9.78
2023-02-08T02:00:53.806Z,-9.81
2023-02-08T02:01:59.328Z,-9.82
2023-02-08T02:03:04.945Z,-9.82
2023-02-08T02:04:09.506Z,-9.84
2023-02-08T02:05:14.530Z,-9.85
2023-02-08T02:06:21.473Z,-9.84
2023-02-08T02:07:28.501Z,-9.87
2023-02-08T02:08:32.616Z,-9.88
2023-02-08T02:09:42.326Z,-9.89
2023-02-08T02:10:48.900Z,-9.91
2023-02-08T02:11:56.566Z,-9.92
2023-02-08T02:13:09.758Z,-9.91
2023-02-08T02:14:13.962Z,-9.95
2023-02-08T02:15:18.191Z,-9.95
2023-02-08T02:16:22.223Z,-10.01
2023-02-08T02:17:26.352Z,-9.97
2023-02-08T02:18:34.247Z,-10.00
2023-02-08T02:19:57.820Z,-10.03
2023-02-08T02:21:40.862Z,-10.05
2023-02-08T02:22:53.770Z,-10.05
2023-02-08T02:24:23.008Z,-10.10
2023-02-08T02:25:41.441Z,-10.09
2023-02-08T02:27:07.591Z,-10.15
2023-02-08T02:28:28.732Z,-10.18
2023-02-08T02:29:52.029Z,-10.20
2023-02-08T02:31:27.229Z,-10.20
2023-02-08T02:32:34.180Z,-10.20
2023-02-08T02:34:01.843Z,-10.19
2023-02-08T02:35:17.546Z,-10.19
2023-02-08T02:36:47.170Z,-10.26
2023-02-08T02:37:56.755Z,-10.30
2023-02-08T02:39:12.423Z,-10.25
2023-02-08T02:42:07.951Z,-10.27
2023-02-08T02:43:26.684Z,-10.30
2023-02-08T02:44:49.630Z,-10.31
2023-02-08T02:46:04.976Z,-10.33
2023-02-08T02:47:26.857Z,-10.30
2023-02-08T02:48:39.770Z,-10.32
2023-02-08T02:49:49.495Z,-10.29
2023-02-08T02:50:56.575Z,-10.29
2023-02-08T02:52:06.158Z,-10.28
2023-02-08T02:53:35.887Z,-10.28
2023-02-08T02:54:47.966Z,-10.31
2023-02-08T02:55:55.015Z,-10.33
2023-02-08T02:57:01.983Z,-10.31
2023-02-08T02:58:08.372Z,-10.28
2023-02-08T02:59:14.658Z,-10.31
2023-02-08T03:00:25.244Z,-10.31
2023-02-08T03:01:29.390Z,-10.33
2023-02-08T03:02:33.293Z,-10.33
2023-02-08T03:03:37.553Z,-10.33
2023-02-08T03:04:44.466Z,-10.33
2023-02-08T03:05:50.068Z,-10.31
2023-02-08T03:07:11.808Z,-10.32
2023-02-08T03:08:33.528Z,-10.34
2023-02-08T03:09:49.627Z,-10.35
2023-02-08T03:11:05.290Z,-10.33
2023-02-08T03:12:18.280Z,-10.31
2023-02-08T03:13:43.478Z,-10.37
2023-02-08T03:14:50.461Z,-10.66
2023-02-08T03:16:09.065Z,-10.39
2023-02-08T03:17:18.854Z,-10.39
2023-02-08T03:18:25.825Z,-10.45
2023-02-08T03:19:35.555Z,-10.42
2023-02-08T03:20:45.295Z,-10.45
2023-02-08T03:21:55.205Z,-10.45
2023-02-08T03:23:04.770Z,-10.48
2023-02-08T03:24:32.716Z,-10.46
2023-02-08T03:25:39.627Z,-10.49
2023-02-08T03:27:03.117Z,-10.52
2023-02-08T03:28:10.178Z,-10.51
2023-02-08T03:29:36.314Z,-10.52
2023-02-08T03:30:43.695Z,-10.53
2023-02-08T03:31:50.945Z,-10.53
2023-02-08T03:33:00.735Z,-10.54
2023-02-08T03:34:15.937Z,-10.59
2023-02-08T03:35:31.824Z,-10.57
2023-02-08T03:36:44.520Z,-10.61
2023-02-08T03:39:09.390Z,-10.57
2023-02-08T03:40:19.601Z,-10.54
2023-02-08T03:41:29.177Z,-10.54
2023-02-08T03:42:36.006Z,-10.52
2023-02-08T03:43:45.464Z,-10.57
2023-02-08T03:44:55.324Z,-10.53
2023-02-08T03:46:23.295Z,-10.53
2023-02-08T03:47:30.334Z,-10.55
2023-02-08T03:48:37.457Z,-10.55
2023-02-08T03:50:38.806Z,-10.59
2023-02-08T03:51:03.219Z,-10.59
2023-02-08T03:52:10.195Z,-10.60
2023-02-08T03:53:17.254Z,-10.58
2023-02-08T03:54:24.272Z,-10.63
2023-02-08T03:55:31.346Z,-10.67
2023-02-08T03:56:41.016Z,-10.68
2023-02-08T03:57:47.943Z,-10.64
2023-02-08T03:59:00.853Z,-10.64
2023-02-08T04:00:10.884Z,-10.69
2023-02-08T04:01:17.940Z,-10.70
2023-02-08T04:02:24.397Z,-10.69
2023-02-08T04:03:30.966Z,-10.67
2023-02-08T04:04:38.355Z,-10.70
2023-02-08T04:05:42.926Z,-10.68
2023-02-08T04:06:47.230Z,-10.70
2023-02-08T04:07:52.183Z,-10.68
2023-02-08T04:08:56.132Z,-10.70
2023-02-08T04:10:00.204Z,-10.68
2023-02-08T04:11:04.287Z,-10.69
2023-02-08T04:12:08.518Z,-10.71
2023-02-08T04:13:12.491Z,-10.73
2023-02-08T04:14:16.767Z,-10.76
2023-02-08T04:15:20.717Z,-10.74
2023-02-08T04:16:24.766Z,-10.74
2023-02-08T04:17:28.663Z,-10.73
2023-02-08T04:18:32.608Z,-10.72
2023-02-08T04:19:36.531Z,-10.77
2023-02-08T04:20:40.987Z,-10.78
2023-02-08T04:21:45.138Z,-10.78
2023-02-08T04:22:49.155Z,-10.78
2023-02-08T04:23:53.193Z,-10.83
2023-02-08T04:24:57.177Z,-10.82
2023-02-08T04:26:01.153Z,-10.82
2023-02-08T04:27:06.110Z,-10.86
2023-02-08T04:28:10.270Z,-10.91
2023-02-08T04:29:14.486Z,-10.87
2023-02-08T04:30:18.830Z,-10.88
2023-02-08T04:31:24.430Z,-10.89
2023-02-08T04:32:28.582Z,-10.89
2023-02-08T04:33:32.674Z,-10.86
2023-02-08T04:34:36.542Z,-10.89
2023-02-08T04:35:41.746Z,-10.91
2023-02-08T04:36:45.862Z,-10.93
2023-02-08T04:37:49.911Z,-10.89
2023-02-08T04:38:54.035Z,-10.89
2023-02-08T04:39:58.074Z,-10.90
2023-02-08T04:41:02.090Z,-10.93
2023-02-08T04:42:06.228Z,-10.98
2023-02-08T04:43:10.281Z,-10.97
2023-02-08T04:44:14.310Z,-10.99
2023-02-08T04:45:18.576Z,-11.04
2023-02-08T04:46:46.595Z,-11.03
2023-02-08T04:47:50.564Z,-11.03
2023-02-08T04:48:54.470Z,-11.06
2023-02-08T04:49:58.418Z,-11.03
2023-02-08T04:51:02.505Z,-11.03
2023-02-08T04:52:06.413Z,-11.03
2023-02-08T04:53:10.489Z,-11.04
2023-02-08T04:54:14.330Z,-11.01
2023-02-08T04:55:18.279Z,-11.04
2023-02-08T04:56:22.256Z,-11.06
2023-02-08T04:57:26.198Z,-11.07
2023-02-08T04:58:30.024Z,-11.06
2023-02-08T04:59:33.958Z,-11.04
2023-02-08T05:00:40.037Z,-11.05
2023-02-08T05:01:44.213Z,-11.03
2023-02-08T05:02:48.139Z,-11.02
2023-02-08T05:03:52.095Z,-11.05
2023-02-08T05:04:56.019Z,-11.04
2023-02-08T05:06:02.040Z,-11.02
2023-02-08T05:07:06.029Z,-11.05
2023-02-08T05:08:09.951Z,-11.06
2023-02-08T05:09:13.830Z,-11.06
2023-02-08T05:10:18.768Z,-11.08
2023-02-08T05:11:24.784Z,-11.08
2023-02-08T05:12:28.717Z,-11.11
2023-02-08T05:13:32.692Z,-11.14
2023-02-08T05:14:36.679Z,-11.14
2023-02-08T05:15:42.243Z,-11.09
2023-02-08T05:16:47.816Z,-11.06
2023-02-08T05:17:51.798Z,-11.09
2023-02-08T05:18:58.876Z,-11.09
2023-02-08T05:20:03.713Z,-11.30
2023-02-08T05:21:08.397Z,-11.15
2023-02-08T05:22:18.299Z,-11.11
2023-02-08T05:23:22.401Z,-11.10
2023-02-08T05:24:26.352Z,-11.12
2023-02-08T05:25:31.890Z,-11.12
2023-02-08T05:26:39.166Z,-11.06
2023-02-08T05:27:43.086Z,-11.11
2023-02-08T05:28:47.061Z,-11.05
2023-02-08T05:29:50.987Z,-11.04
2023-02-08T05:30:55.181Z,-11.05
2023-02-08T05:31:59.299Z,-11.00
2023-02-08T05:33:03.229Z,-11.00
2023-02-08T05:34:07.245Z,-10.95
2023-02-08T05:35:11.207Z,-10.95
2023-02-08T05:36:15.208Z,-10.85
2023-02-08T05:37:19.161Z,-10.82
2023-02-08T05:38:23.007Z,-10.82
2023-02-08T05:39:26.866Z,-10.79
2023-02-08T05:40:30.961Z,-10.79
2023-02-08T05:41:34.872Z,-10.74
2023-02-08T05:42:38.892Z,-10.70
2023-02-08T05:43:42.996Z,-10.67
2023-02-08T05:44:47.008Z,-10.67
2023-02-08T05:45:51.694Z,-10.67
2023-02-08T05:46:55.626Z,-10.59
2023-02-08T05:47:59.609Z,-10.62
2023-02-08T05:49:04.107Z,-10.51
2023-02-08T05:50:08.556Z,-10.48
2023-02-08T05:51:12.468Z,-10.47
2023-02-08T05:52:16.378Z,-10.42
2023-02-08T05:53:21.370Z,-10.39
2023-02-08T05:54:26.521Z,-10.38
2023-02-08T05:55:30.518Z,-10.29
2023-02-08T05:56:34.524Z,-10.25
2023-02-08T05:57:38.480Z,-10.23
2023-02-08T05:58:42.495Z,-10.19
2023-02-08T05:59:46.483Z,-10.19
2023-02-08T06:00:50.565Z,-10.08
2023-02-08T06:01:54.520Z,-10.04
2023-02-08T06:02:59.118Z,-9.98
2023-02-08T06:04:03.337Z,-9.95
2023-02-08T06:05:07.865Z,-9.92
2023-02-08T06:06:12.385Z,-9.86
2023-02-08T06:07:16.650Z,-9.82
2023-02-08T06:08:20.520Z,-9.80
2023-02-08T06:09:24.552Z,-9.72
2023-02-08T06:10:28.558Z,-9.72
2023-02-08T06:11:32.452Z,-9.68
2023-02-08T06:12:36.420Z,-9.63
2023-02-08T06:13:40.453Z,-9.64
2023-02-08T06:14:44.425Z,-9.61
2023-02-08T06:15:48.382Z,-9.53
2023-02-08T06:16:52.403Z,-10.70
2023-02-08T06:17:56.763Z,-9.50
2023-02-08T06:19:00.929Z,-9.45
2023-02-08T06:20:05.656Z,-9.43
2023-02-08T06:21:13.593Z,-9.37
2023-02-08T06:22:19.157Z,-9.28
2023-02-08T06:23:23.940Z,-9.23
2023-02-08T06:24:28.070Z,-9.19
2023-02-08T06:25:32.171Z,-9.17
2023-02-08T06:26:36.241Z,-9.17
2023-02-08T06:27:40.212Z,-9.04
2023-02-08T06:28:44.102Z,-9.04
2023-02-08T06:29:48.126Z,-8.91
2023-02-08T06:30:52.931Z,-8.84
2023-02-08T06:31:57.064Z,-8.84
2023-02-08T06:33:01.135Z,-8.78
2023-02-08T06:34:08.161Z,-8.80
2023-02-08T06:35:12.970Z,-8.80
2023-02-08T06:36:18.869Z,-8.67
2023-02-08T06:37:23.009Z,-8.58
2023-02-08T06:38:27.077Z,-8.58
2023-02-08T06:39:31.033Z,-8.48
2023-02-08T06:40:35.057Z,-8.47
2023-02-08T06:41:38.969Z,-8.44
2023-02-08T06:42:43.011Z,-8.36
2023-02-08T06:43:47.077Z,-8.35
2023-02-08T06:44:55.168Z,-8.24
2023-02-08T06:45:56.841Z,-8.26
2023-02-08T06:47:00.960Z,-8.25
2023-02-08T06:48:05.203Z,-8.22
2023-02-08T06:49:09.190Z,-8.15
2023-02-08T06:50:13.291Z,-8.10
2023-02-08T06:51:17.266Z,-8.20
2023-02-08T06:52:22.059Z,-8.11
2023-02-08T06:53:26.025Z,-8.11
2023-02-08T06:54:30.067Z,-8.05
2023-02-08T06:55:34.155Z,-8.03
2023-02-08T06:56:38.276Z,-7.98
2023-02-08T06:57:42.397Z,-7.94
2023-02-08T06:58:46.415Z,-7.91
2023-02-08T06:59:50.384Z,-7.87
2023-02-08T07:00:54.461Z,-7.82
2023-02-08T07:02:01.108Z,-7.72
2023-02-08T07:03:04.132Z,-7.74
2023-02-08T07:04:08.154Z,-7.68
2023-02-08T07:05:12.216Z,-7.67
2023-02-08T07:06:19.677Z,-7.56
2023-02-08T07:07:23.732Z,-7.56
2023-02-08T07:08:27.731Z,-7.51
2023-02-08T07:09:33.271Z,-7.51
2023-02-08T07:10:40.123Z,-7.63
2023-02-08T07:11:44.788Z,-7.67
2023-02-08T07:12:48.709Z,-7.63
2023-02-08T07:13:53.203Z,-7.61
2023-02-08T07:14:57.127Z,-7.57
2023-02-08T07:16:01.170Z,-7.45
2023-02-08T07:17:05.850Z,-7.33
2023-02-08T07:18:09.823Z,-7.29
2023-02-08T07:19:13.752Z,-7.28
2023-02-08T07:20:17.997Z,-7.27
2023-02-08T07:21:22.033Z,-7.27
2023-02-08T07:22:25.961Z,-7.22
2023-02-08T07:23:29.825Z,-7.13
2023-02-08T07:24:35.055Z,-7.15
2023-02-08T07:25:38.998Z,-7.10
2023-02-08T07:26:43.045Z,-7.08
2023-02-08T07:27:46.918Z,-7.10
2023-02-08T07:28:50.873Z,-7.00
2023-02-08T07:29:55.037Z,-6.95
2023-02-08T07:30:59.162Z,-6.90
2023-02-08T07:32:06.724Z,-6.80
2023-02-08T07:33:10.677Z,-6.75
2023-02-08T07:34:14.688Z,-6.75
2023-02-08T07:35:20.739Z,-6.72
2023-02-08T07:36:24.374Z,-6.72
2023-02-08T07:37:28.666Z,-6.78
2023-02-08T07:38:34.190Z,-6.71
2023-02-08T07:39:39.674Z,-6.67
2023-02-08T07:40:43.864Z,-6.61
2023-02-08T07:41:48.617Z,-6.55
2023-02-08T07:42:53.981Z,-6.49
2023-02-08T07:43:59.802Z,-6.48
2023-02-08T07:45:05.760Z,-6.47
2023-02-08T07:46:13.052Z,-6.50
2023-02-08T07:47:21.068Z,-6.42
2023-02-08T07:48:30.901Z,-6.47
2023-02-08T07:49:49.360Z,-6.46
2023-02-08T07:50:45.234Z,-6.46
2023-02-08T07:51:49.530Z,-6.45
2023-02-08T07:52:53.544Z,-6.41
2023-02-08T07:53:59.349Z,-6.34
2023-02-08T07:55:08.205Z,-6.25
2023-02-08T07:56:14.488Z,-6.21
2023-02-08T07:57:20.984Z,-6.21
2023-02-08T07:58:24.713Z,-6.16
2023-02-08T07:59:36.261Z,-6.12
2023-02-08T08:00:42.386Z,-6.12
2023-02-08T08:01:52.568Z,-9.48
2023-02-08T08:02:56.836Z,-6.05
2023-02-08T08:04:02.015Z,-6.05
2023-02-08T08:05:06.308Z,-6.01
2023-02-08T08:06:11.926Z,-5.88
2023-02-08T08:07:18.718Z,-5.87
2023-02-08T08:08:24.237Z,-5.85
2023-02-08T08:09:28.387Z,-5.77
2023-02-08T08:10:34.192Z,-5.67
2023-02-08T08:11:39.703Z,-5.68
2023-02-08T08:12:45.265Z,-5.71
2023-02-08T08:13:52.643Z,-5.64
2023-02-08T08:15:09.105Z,-5.64
2023-02-08T08:16:11.577Z,-5.61
2023-02-08T08:17:18.233Z,-5.57
2023-02-08T08:18:38.481Z,-5.58
2023-02-08T08:19:32.788Z,-5.59
2023-02-08T08:20:40.896Z,-5.52
2023-02-08T08:21:45.575Z,-5.50
2023-02-08T08:22:49.600Z,-5.50
2023-02-08T08:23:53.580Z,-5.50
2023-02-08T08:24:59.037Z,-5.49
2023-02-08T08:26:15.206Z,-5.54
2023-02-08T08:27:21.251Z,-5.52
2023-02-08T08:28:25.131Z,-5.46
2023-02-08T08:29:31.286Z,-5.46
2023-02-08T08:30:38.626Z,-5.42
2023-02-08T08:31:44.406Z,-5.30
2023-02-08T08:32:48.780Z,-5.39
2023-02-08T08:34:01.112Z,-5.39
2023-02-08T08:35:15.611Z,-5.40
2023-02-08T08:36:21.301Z,-5.33
2023-02-08T08:37:26.686Z,-5.25
2023-02-08T08:38:30.856Z,-5.17
2023-02-08T08:39:36.572Z,-5.10
2023-02-08T08:40:42.469Z,-5.04
2023-02-08T08:41:48.520Z,-5.06
2023-02-08T08:42:55.000Z,-4.99
2023-02-08T08:44:01.150Z,-4.99
2023-02-08T08:45:05.193Z,-4.89
2023-02-08T08:46:10.188Z,-4.83
2023-02-08T08:47:18.376Z,-4.75
2023-02-08T08:48:21.471Z,-4.74
2023-02-08T08:49:27.451Z,-4.69
2023-02-08T08:50:31.802Z,-4.67
2023-02-08T08:51:35.922Z,-4.69
2023-02-08T08:52:39.890Z,-4.69
2023-02-08T08:53:45.573Z,-4.73
2023-02-08T08:54:49.807Z,-4.66
2023-02-08T08:55:53.827Z,-4.60
2023-02-08T08:56:57.992Z,-4.59
2023-02-08T08:58:03.548Z,-4.58
2023-02-08T08:59:10.051Z,-4.58
2023-02-08T09:00:20.405Z,-4.68
2023-02-08T09:01:24.863Z,-4.60
2023-02-08T09:02:29.004Z,-4.73
2023-02-08T09:03:33.214Z,-4.74
2023-02-08T09:04:37.456Z,-4.72
2023-02-08T09:05:43.116Z,-4.72
2023-02-08T09:06:47.331Z,-4.64
2023-02-08T09:07:51.394Z,-4.59
2023-02-08T09:08:55.426Z,-4.56
2023-02-08T09:09:59.355Z,-4.50
2023-02-08T09:11:12.600Z,-4.56
2023-02-08T09:12:18.258Z,-4.56
2023-02-08T09:13:23.964Z,-4.57
2023-02-08T09:14:28.336Z,-4.59
2023-02-08T09:15:34.121Z,-4.59
2023-02-08T09:16:45.918Z,-4.59
2023-02-08T09:17:51.503Z,-4.52
2023-02-08T09:18:58.835Z,-4.42
2023-02-08T09:20:04.961Z,-4.41
2023-02-08T09:21:14.210Z,-4.41
2023-02-08T09:22:21.588Z,-4.33
2023-02-08T09:23:25.916Z,-4.28
2023-02-08T09:24:30.005Z,-4.28
2023-02-08T09:25:34.029Z,-4.44
2023-02-08T09:26:39.005Z,-4.39
2023-02-08T09:27:46.139Z,-4.39
2023-02-08T09:28:50.350Z,-4.36
2023-02-08T09:29:54.413Z,-4.39
2023-02-08T09:31:00.228Z,-4.29
2023-02-08T09:32:04.505Z,-4.32
2023-02-08T09:33:08.847Z,-4.25
2023-02-08T09:34:17.754Z,-4.25
2023-02-08T09:35:23.168Z,-4.17
2023-02-08T09:36:31.947Z,-4.22
2023-02-08T09:37:42.020Z,-4.16
2023-02-08T09:38:52.108Z,-4.15
2023-02-08T09:40:08.732Z,-4.10
2023-02-08T09:41:24.509Z,-4.17
2023-02-08T09:42:44.745Z,-4.17
2023-02-08T09:44:09.522Z,-4.04
2023-02-08T09:45:28.137Z,-3.99
2023-02-08T09:46:36.349Z,-3.99
2023-02-08T09:47:57.703Z,-4.01
2023-02-08T09:49:06.127Z,-3.93
2023-02-08T09:50:38.618Z,-3.88
2023-02-08T09:51:45.819Z,-3.82
2023-02-08T09:53:13.812Z,-3.87
2023-02-08T09:54:35.606Z,-4.02
2023-02-08T09:55:42.510Z,-3.76
2023-02-08T09:56:51.015Z,-3.73
2023-02-08T09:57:59.331Z,-3.66
2023-02-08T09:59:03.573Z,-3.64
2023-02-08T10:02:27.337Z,-3.70
2023-02-08T10:03:34.485Z,-3.92
2023-02-08T10:04:44.614Z,-3.61
2023-02-08T10:05:48.690Z,-3.64
2023-02-08T10:06:52.941Z,-3.58
2023-02-08T10:07:57.271Z,-3.54
2023-02-08T10:09:04.309Z,-3.50
2023-02-08T10:10:14.647Z,-3.46
2023-02-08T10:11:32.073Z,-3.43
2023-02-08T10:12:56.944Z,-3.37
2023-02-08T10:14:10.295Z,-3.38
2023-02-08T10:15:35.098Z,-3.42
2023-02-08T10:16:51.077Z,-3.36
2023-02-08T10:18:04.023Z,-3.36
2023-02-08T10:19:16.574Z,-3.36
2023-02-08T10:20:44.878Z,-3.41
2023-02-08T10:22:00.944Z,-3.47
2023-02-08T10:23:28.414Z,-3.52
2023-02-08T10:24:47.201Z,-3.48
2023-02-08T10:26:03.481Z,-3.51
2023-02-08T10:27:20.229Z,-3.48
2023-02-08T10:28:30.628Z,-3.48
2023-02-08T10:30:02.992Z,-3.44
2023-02-08T10:31:18.916Z,-3.47
2023-02-08T10:32:37.773Z,-3.47
2023-02-08T10:33:44.830Z,-3.52
2023-02-08T10:34:56.618Z,-3.49
2023-02-08T10:36:00.386Z,-3.44
2023-02-08T10:37:19.248Z,-3.46
2023-02-08T10:38:45.277Z,-3.49
2023-02-08T10:39:39.890Z,-3.63
2023-02-08T10:40:45.438Z,-3.56
2023-02-08T10:41:52.654Z,-3.59
2023-02-08T10:43:02.891Z,-3.57
2023-02-08T10:44:18.893Z,-3.55
2023-02-08T10:45:31.634Z,-3.57
2023-02-08T10:46:50.434Z,-3.57
2023-02-08T10:47:59.310Z,-3.54
2023-02-08T10:49:18.573Z,-3.54
2023-02-08T10:50:37.996Z,-3.57
2023-02-08T10:51:43.009Z,-3.65
2023-02-08T10:52:50.633Z,-3.68
2023-02-08T10:53:56.033Z,-3.74
2023-02-08T10:55:02.148Z,-3.79
2023-02-08T10:56:06.676Z,-3.77
2023-02-08T10:57:23.052Z,-3.79
2023-02-08T10:58:27.379Z,-3.79
2023-02-08T10:59:51.304Z,-3.69
2023-02-08T11:00:56.569Z,-3.68
2023-02-08T11:02:00.767Z,-3.73
2023-02-08T11:03:10.581Z,-3.69
2023-02-08T11:04:16.099Z,-3.69
2023-02-08T11:05:23.072Z,-3.71
2023-02-08T11:06:28.249Z,-3.74
2023-02-08T11:07:36.071Z,-3.71
2023-02-08T11:08:42.371Z,-3.77
2023-02-08T11:09:46.596Z,-3.77
2023-02-08T11:11:02.780Z,-3.88
2023-02-08T11:12:08.453Z,-3.86
2023-02-08T11:13:20.879Z,-3.85
2023-02-08T11:14:40.972Z,-3.85
2023-02-08T11:15:56.924Z,-3.74
2023-02-08T11:17:01.322Z,-3.84
2023-02-08T11:18:08.620Z,-3.84
2023-02-08T11:19:21.273Z,-3.83
2023-02-08T11:20:32.489Z,-3.73
2023-02-08T11:21:39.611Z,-3.67
2023-02-08T11:22:46.189Z,-3.64
2023-02-08T11:23:53.041Z,-3.64
2023-02-08T11:25:05.007Z,-3.67
2023-02-08T11:26:27.184Z,-3.70
2023-02-08T11:27:38.977Z,-3.69
2023-02-08T11:28:43.868Z,-3.66
2023-02-08T11:29:47.969Z,-3.63
2023-02-08T11:31:00.883Z,-3.70
2023-02-08T11:32:17.138Z,-3.60
2023-02-08T11:33:21.300Z,-3.70
2023-02-08T11:34:29.895Z,-3.61
2023-02-08T11:35:34.158Z,-3.58
2023-02-08T11:36:46.912Z,-3.60
2023-02-08T11:37:58.075Z,-3.53
2023-02-08T11:39:21.247Z,-3.50
2023-02-08T11:40:39.920Z,-3.52
2023-02-08T11:41:49.434Z,-3.48
2023-02-08T11:42:54.644Z,-3.51
2023-02-08T11:44:06.755Z,-3.51
2023-02-08T11:45:24.229Z,-3.53
2023-02-08T11:46:31.429Z,-3.50
2023-02-08T11:47:39.780Z,-3.51
2023-02-08T11:48:52.434Z,-3.51
2023-02-08T11:49:59.732Z,-3.56
2023-02-08T11:51:04.756Z,-3.58
2023-02-08T11:53:48.362Z,-3.58
2023-02-08T11:54:53.841Z,-3.56
2023-02-08T11:56:18.837Z,-3.48
2023-02-08T11:57:27.272Z,-3.56
2023-02-08T11:58:32.350Z,-3.49
2023-02-08T11:59:36.580Z,-3.44
2023-02-08T12:00:41.721Z,-3.45
2023-02-08T12:01:45.896Z,-3.46
2023-02-08T12:02:51.458Z,-3.46
2023-02-08T12:03:58.358Z,-3.46
2023-02-08T12:05:03.299Z,-3.46
2023-02-08T12:06:27.308Z,-3.51
2023-02-08T12:07:39.717Z,-3.52
2023-02-08T12:09:09.206Z,-3.46
2023-02-08T12:10:38.063Z,-3.52
2023-02-08T12:11:48.759Z,-3.53
2023-02-08T12:12:55.830Z,-3.53
2023-02-08T12:14:02.855Z,-3.56
2023-02-08T12:15:45.028Z,-3.54
2023-02-08T12:16:53.645Z,-3.57
2023-02-08T12:18:06.468Z,-3.61
2023-02-08T12:20:48.723Z,-3.45
2023-02-08T12:21:55.684Z,-3.62
2023-02-08T12:23:08.739Z,-3.60
2023-02-08T12:24:24.351Z,-3.55
2023-02-08T12:25:36.788Z,-3.51
2023-02-08T12:27:01.596Z,-3.44
2023-02-08T12:28:17.397Z,-3.43
2023-02-08T12:29:24.410Z,-3.45
2023-02-08T12:30:43.917Z,-3.50
2023-02-08T12:31:59.795Z,-3.52
2023-02-08T12:33:23.487Z,-3.47
2023-02-08T12:35:07.040Z,-3.52
2023-02-08T12:36:14.385Z,-3.49
2023-02-08T12:37:27.479Z,-3.48
2023-02-08T12:38:40.289Z,-3.57
2023-02-08T12:39:55.888Z,-3.50
2023-02-08T12:41:23.731Z,-3.46
2023-02-08T12:42:36.388Z,-3.47
2023-02-08T12:43:52.153Z,-3.43
2023-02-08T12:45:02.120Z,-3.45
2023-02-08T12:46:09.415Z,-3.51
2023-02-08T12:47:22.171Z,-3.44
2023-02-08T12:48:45.374Z,-3.48
2023-02-08T12:50:04.473Z,-3.43
2023-02-08T12:51:11.491Z,-3.47
2023-02-08T12:52:24.639Z,-3.56
2023-02-08T12:53:31.632Z,-3.56
2023-02-08T12:54:55.082Z,-3.53
2023-02-08T12:56:02.176Z,-3.56
2023-02-08T12:57:07.636Z,-3.53
2023-02-08T12:58:26.543Z,-3.52
2023-02-08T12:59:36.302Z,-3.51
2023-02-08T13:00:43.718Z,-3.50
2023-02-08T13:01:50.470Z,-3.50
2023-02-08T13:03:03.535Z,-3.46
2023-02-08T13:04:13.370Z,-3.47
2023-02-08T13:05:20.611Z,-3.51
2023-02-08T13:06:27.913Z,-3.50
2023-02-08T13:07:38.189Z,-3.50
2023-02-08T13:08:59.381Z,-3.55
2023-02-08T13:10:09.263Z,-3.50
2023-02-08T13:11:20.281Z,-3.50
2023-02-08T13:12:30.626Z,-3.57
2023-02-08T13:13:37.663Z,-3.54
2023-02-08T13:14:44.734Z,-3.61
2023-02-08T13:16:10.060Z,-3.56
2023-02-08T13:17:26.659Z,-3.59
2023-02-08T13:18:39.501Z,-3.56
2023-02-08T13:19:58.130Z,-3.58
2023-02-08T13:20:57.946Z,-3.56
2023-02-08T13:22:05.049Z,-3.56
2023-02-08T13:23:33.416Z,-3.56
2023-02-08T13:24:44.075Z,-3.53
2023-02-08T13:25:50.918Z,-3.53
2023-02-08T13:26:55.010Z,-3.53
2023-02-08T13:28:04.575Z,-3.53
2023-02-08T13:29:11.734Z,-3.48
2023-02-08T13:30:22.574Z,-3.50
2023-02-08T13:31:35.630Z,-3.50
2023-02-08T13:32:45.528Z,-3.46
2023-02-08T13:34:04.415Z,-3.47
2023-02-08T13:35:23.140Z,-3.51
2023-02-08T13:36:32.875Z,-3.49
2023-02-08T13:37:37.482Z,-3.50
2023-02-08T13:38:44.917Z,-3.49
2023-02-08T13:39:49.720Z,-3.49
2023-02-08T13:41:08.485Z,-3.49
2023-02-08T13:42:30.375Z,-3.54
2023-02-08T13:43:46.074Z,-3.53
2023-02-08T13:44:53.204Z,-3.50
2023-02-08T13:46:00.185Z,-3.50
2023-02-08T13:47:07.609Z,-3.52
2023-02-08T13:48:17.281Z,-3.53
2023-02-08T13:49:43.920Z,-3.52
2023-02-08T13:50:52.716Z,-3.53
2023-02-08T13:51:56.687Z,-3.51
2023-02-08T13:53:01.714Z,-3.54
2023-02-08T13:54:11.498Z,-3.55
2023-02-08T13:55:33.588Z,-3.54
2023-02-08T13:56:46.937Z,-3.58
2023-02-08T13:57:56.035Z,-3.61
2023-02-08T13:59:01.544Z,-3.56
2023-02-08T14:00:24.092Z,-3.56
2023-02-08T14:01:30.901Z,-3.57
2023-02-08T14:02:34.873Z,-3.57
2023-02-08T14:03:38.921Z,-3.64
2023-02-08T14:04:44.651Z,-3.64
2023-02-08T14:06:00.637Z,-3.67
2023-02-08T14:07:13.553Z,-3.67
2023-02-08T14:08:26.390Z,-3.67
2023-02-08T14:09:51.142Z,-3.63
2023-02-08T14:11:06.884Z,-3.65
2023-02-08T14:12:22.630Z,-3.67
2023-02-08T14:13:35.503Z,-3.67
2023-02-08T14:14:40.192Z,-3.70
2023-02-08T14:15:45.159Z,-3.72
2023-02-08T14:17:11.830Z,-3.70
2023-02-08T14:18:24.605Z,-3.70
2023-02-08T14:19:28.688Z,-3.70
2023-02-08T14:20:35.650Z,-3.74
2023-02-08T14:21:45.348Z,-3.76
2023-02-08T14:22:54.850Z,-3.76
2023-02-08T14:24:07.646Z,-3.82
2023-02-08T14:25:23.474Z,-3.82
2023-02-08T14:26:30.107Z,-3.82
2023-02-08T14:27:40.012Z,-3.89
2023-02-08T14:28:46.726Z,-3.89
2023-02-08T14:30:05.540Z,-3.86
2023-02-08T14:31:12.705Z,-3.87
2023-02-08T14:32:28.046Z,-3.88
2023-02-08T14:33:37.851Z,-3.90
2023-02-08T14:34:42.237Z,-3.94
2023-02-08T14:35:51.673Z,-3.94
2023-02-08T14:37:20.179Z,-3.95
2023-02-08T14:38:27.069Z,-3.98
2023-02-08T14:39:33.968Z,-4.01
2023-02-08T14:40:58.213Z,-4.03
2023-02-08T14:42:06.919Z,-4.01